Time;durP1;ratioP1;P1;durP2;ratioP2;P2;SDS_P1;SDS_P2;PMS_P1;PMS_P2;Temp;Humidity;BMP_temperature;BMP_pressure;BME280_temperature;BME280_humidity;BME280_pressure;Samples;Min_cycle;Max_cycle;Signal;HPM_P1;HPM_P2
2023/09/28 00:00:38;;;;;;;;;;;;;;;21.92;47.92;99677.66;5092312;28;19918;-78
2023/09/28 00:03:05;;;;;;;;;;;;;;;21.93;47.93;99676.59;5091974;28;20011;-77
2023/09/28 00:05:31;;;;;;;;;;;;;;;21.92;48.23;99674.13;5092177;28;20428;-77
2023/09/28 00:07:56;;;;;;;;;;;;;;;21.92;47.97;99676.81;5073837;28;19922;-77
2023/09/28 00:10:21;;;;;;;;;;;;;;;21.97;48.06;99674.22;5092003;28;20393;-77
2023/09/28 00:12:50;;;;;;;;;;;;;;;21.98;47.96;99676.66;5091848;28;19920;-77
2023/09/28 00:15:16;;;;;;;;;;;;;;;21.97;47.70;99680.41;5073776;28;20297;-76
2023/09/28 00:17:42;;;;;;;;;;;;;;;21.94;47.73;99677.41;5091819;28;19919;-77
2023/09/28 00:20:17;;;;;;;;;;;;;;;21.91;47.54;99677.91;5092654;28;19912;-77
2023/09/28 00:22:51;;;;;;;;;;;;;;;21.88;47.46;99669.25;5096193;28;19914;-78
2023/09/28 00:25:16;;;;;;;;;;;;;;;21.89;47.74;99667.38;5096103;28;19916;-76
2023/09/28 00:28:00;;;;;;;;;;;;;;;21.92;47.49;99666.06;5077893;28;19923;-76
2023/09/28 00:30:26;;;;;;;;;;;;;;;21.94;47.39;99666.63;5095995;28;20006;-77
2023/09/28 00:32:53;;;;;;;;;;;;;;;21.93;47.35;99665.81;5095906;28;20030;-77
2023/09/28 00:35:19;;;;;;;;;;;;;;;21.93;47.47;99668.50;5095695;28;19912;-77
2023/09/28 00:37:44;;;;;;;;;;;;;;;21.92;47.28;99669.56;5095964;28;19922;-77
2023/09/28 00:40:31;;;;;;;;;;;;;;;21.92;47.42;99664.19;5095970;28;19919;-77
2023/09/28 00:42:57;;;;;;;;;;;;;;;21.93;47.45;99667.69;5095621;28;20324;-77
2023/09/28 00:48:10;;;;;;;;;;;;;;;21.91;47.14;99667.13;5095987;28;19935;-77
2023/09/28 00:50:35;;;;;;;;;;;;;;;21.95;47.13;99668.25;5095278;28;19919;-77
2023/09/28 00:53:03;;;;;;;;;;;;;;;21.97;46.96;99671.53;5095347;28;20315;-76
2023/09/28 00:55:29;;;;;;;;;;;;;;;21.97;46.98;99672.34;5095292;28;19992;-76
2023/09/28 00:58:02;;;;;;;;;;;;;;;21.95;47.16;99663.69;5077177;28;20372;-76
2023/09/28 01:00:29;;;;;;;;;;;;;;;21.97;46.99;99658.06;5077190;28;19919;-76
2023/09/28 01:02:55;;;;;;;;;;;;;;;21.97;46.83;99664.25;5095285;28;20408;-76
2023/09/28 01:05:33;;;;;;;;;;;;;;;21.98;46.81;99659.69;5076785;28;19916;-76
2023/09/28 01:08:08;;;;;;;;;;;;;;;21.98;46.75;99659.69;5094957;28;19912;-76
2023/09/28 01:10:36;;;;;;;;;;;;;;;21.97;46.95;99658.88;5094918;28;19912;-77
2023/09/28 01:15:49;;;;;;;;;;;;;;;22.04;46.74;99647.97;5095340;28;20308;-77
2023/09/28 01:18:15;;;;;;;;;;;;;;;22.03;46.73;99639.09;5095071;28;19916;-76
2023/09/28 01:20:43;;;;;;;;;;;;;;;22.03;46.86;99641.78;5094918;28;19977;-77
2023/09/28 01:23:08;;;;;;;;;;;;;;;21.99;46.58;99640.63;5094777;28;19912;-77
2023/09/28 01:25:34;;;;;;;;;;;;;;;21.99;46.61;99646.00;5094581;28;20420;-77
2023/09/28 01:28:00;;;;;;;;;;;;;;;21.98;46.75;99633.63;5094766;28;20001;-77
2023/09/28 01:30:26;;;;;;;;;;;;;;;22.01;46.75;99635.00;5094787;28;19912;-77
2023/09/28 01:32:53;;;;;;;;;;;;;;;22.05;46.57;99634.28;5093751;28;19919;-77
2023/09/28 01:35:18;;;;;;;;;;;;;;;22.08;46.76;99639.16;5094784;28;19912;-78
2023/09/28 01:38:02;;;;;;;;;;;;;;;22.12;46.51;99634.91;5094712;28;19919;-78
2023/09/28 01:40:28;;;;;;;;;;;;;;;22.13;46.45;99635.72;5076246;28;19919;-77
2023/09/28 01:42:53;;;;;;;;;;;;;;;22.12;46.10;99634.09;5094422;28;19912;-77
2023/09/28 01:45:37;;;;;;;;;;;;;;;22.09;46.09;99635.41;5094597;28;19912;-77
2023/09/28 01:48:05;;;;;;;;;;;;;;;22.02;46.29;99640.13;5094528;28;19958;-78
2023/09/28 01:50:30;;;;;;;;;;;;;;;22.04;46.45;99639.91;5094044;28;20007;-77
2023/09/28 01:52:56;;;;;;;;;;;;;;;22.03;46.29;99641.78;5094206;28;19999;-78
2023/09/28 01:55:21;;;;;;;;;;;;;;;22.06;46.19;99651.22;5076099;28;19999;-77
2023/09/28 01:57:46;;;;;;;;;;;;;;;22.09;46.17;99654.22;5094649;28;19912;-75
2023/09/28 02:00:18;;;;;;;;;;;;;;;22.12;46.07;99648.34;5076312;28;19912;-77
2023/09/28 02:02:43;;;;;;;;;;;;;;;22.12;46.06;99664.50;5094277;28;19912;-77
2023/09/28 02:05:32;;;;;;;;;;;;;;;22.12;45.99;99653.72;5093875;28;19972;-76
2023/09/28 02:07:57;;;;;;;;;;;;;;;22.08;46.23;99644.53;5094007;28;20002;-76
2023/09/28 02:10:41;;;;;;;;;;;;;;;22.08;46.19;99654.47;5075949;28;20384;-76
2023/09/28 02:13:06;;;;;;;;;;;;;;;22.04;46.44;99638.03;5093950;28;19912;-76
2023/09/28 02:15:50;;;;;;;;;;;;;;;22.01;46.51;99649.25;5093845;28;20316;-77
2023/09/28 02:18:16;;;;;;;;;;;;;;;21.94;46.61;99650.50;5093818;28;19916;-77
2023/09/28 02:20:42;;;;;;;;;;;;;;;21.86;46.69;99649.88;5075694;28;20426;-77
2023/09/28 02:23:09;;;;;;;;;;;;;;;21.78;46.77;99647.63;5093588;28;19916;-76
2023/09/28 02:28:18;;;;;;;;;;;;;;;21.75;46.78;99655.38;5093601;28;19915;-75
2023/09/28 02:30:43;;;;;;;;;;;;;;;21.74;46.44;99649.19;5093710;28;19912;-77
2023/09/28 02:33:09;;;;;;;;;;;;;;;21.71;46.43;99651.56;5093736;28;19911;-77
2023/09/28 02:35:34;;;;;;;;;;;;;;;21.74;46.24;99648.38;5093690;28;20328;-77
2023/09/28 02:37:59;;;;;;;;;;;;;;;21.75;46.25;99648.13;5093777;28;19912;-77
2023/09/28 02:40:24;;;;;;;;;;;;;;;21.75;46.18;99650.81;5093660;28;19911;-76
2023/09/28 02:42:50;;;;;;;;;;;;;;;21.75;46.24;99650.81;5093416;28;19912;-77
2023/09/28 02:45:15;;;;;;;;;;;;;;;21.72;46.18;99651.31;5093579;28;19981;-76
2023/09/28 02:47:59;;;;;;;;;;;;;;;21.71;46.43;99657.75;5093441;28;19912;-77
2023/09/28 02:50:24;;;;;;;;;;;;;;;21.71;46.52;99657.75;5093031;28;19912;-76
2023/09/28 02:52:52;;;;;;;;;;;;;;;21.65;46.93;99660.59;5093485;28;19998;-76
2023/09/28 02:55:17;;;;;;;;;;;;;;;21.61;47.06;99652.22;5093095;28;20456;-77
2023/09/28 02:57:43;;;;;;;;;;;;;;;21.60;47.19;99652.47;5093209;28;19999;-77
2023/09/28 03:00:27;;;;;;;;;;;;;;;21.55;46.98;99655.88;5075013;28;20045;-77
2023/09/28 03:02:53;;;;;;;;;;;;;;;21.52;47.59;99657.19;5093060;28;19923;-77
2023/09/28 03:05:20;;;;;;;;;;;;;;;21.54;47.63;99665.00;5092722;28;19945;-77
2023/09/28 03:07:46;;;;;;;;;;;;;;;21.50;47.71;99659.31;5092786;28;19916;-76
2023/09/28 03:10:11;;;;;;;;;;;;;;;21.52;47.82;99667.13;5092763;28;20415;-77
2023/09/28 03:12:37;;;;;;;;;;;;;;;21.52;47.53;99661.75;5092806;28;19919;-77
2023/09/28 03:15:05;;;;;;;;;;;;;;;21.47;47.62;99664.34;5092690;28;20011;-78
2023/09/28 03:17:30;;;;;;;;;;;;;;;21.44;48.17;99665.66;5092802;28;19916;-77
2023/09/28 03:22:40;;;;;;;;;;;;;;;21.47;47.94;99667.84;5092922;28;19965;-78
2023/09/28 03:25:11;;;;;;;;;;;;;;;21.51;47.95;99660.94;5092677;28;20374;-77
2023/09/28 03:30:22;;;;;;;;;;;;;;;21.57;47.46;99667.22;5092539;28;19918;-77
2023/09/28 03:32:47;;;;;;;;;;;;;;;21.59;47.80;99681.22;5092607;28;20006;-77
2023/09/28 03:35:13;;;;;;;;;;;;;;;21.59;47.48;99670.47;5074183;28;20388;-77
2023/09/28 03:43:25;;;;;;;;;;;;;;;21.60;48.00;99680.16;5092318;28;19921;-77
2023/09/28 03:45:50;;;;;;;;;;;;;;;21.57;47.94;99677.97;5073925;28;19919;-77
2023/09/28 03:48:16;;;;;;;;;;;;;;;21.55;47.92;99672.84;5092061;28;20397;-78
2023/09/28 03:50:41;;;;;;;;;;;;;;;21.54;48.59;99679.25;5092007;28;19995;-77
2023/09/28 03:53:06;;;;;;;;;;;;;;;21.51;48.34;99685.09;5073848;28;19918;-77
2023/09/28 03:55:32;;;;;;;;;;;;;;;21.51;48.00;99686.97;5091247;28;19912;-77
2023/09/28 04:00:42;;;;;;;;;;;;;;;21.55;48.29;99677.38;5091794;28;19919;-77
2023/09/28 04:03:08;;;;;;;;;;;;;;;21.62;48.14;99683.41;5091703;28;19912;-76
2023/09/28 04:05:33;;;;;;;;;;;;;;;21.62;48.08;99677.22;5091773;28;20404;-76
2023/09/28 04:07:58;;;;;;;;;;;;;;;21.65;48.05;99682.09;5091883;28;19923;-76
2023/09/28 04:10:24;;;;;;;;;;;;;;;21.64;48.12;99691.22;5091892;28;20385;-77
2023/09/28 04:12:49;;;;;;;;;;;;;;;21.64;48.50;99692.03;5091808;28;19915;-77
2023/09/28 04:15:16;;;;;;;;;;;;;;;21.66;48.16;99695.28;5073689;28;19968;-76
2023/09/28 04:17:41;;;;;;;;;;;;;;;21.69;47.85;99696.69;5073947;28;19909;-76
2023/09/28 04:20:09;;;;;;;;;;;;;;;21.69;47.98;99694.00;5091918;28;19920;-77
2023/09/28 04:22:34;;;;;;;;;;;;;;;21.70;47.62;99698.31;5092188;28;19916;-76
2023/09/28 04:25:00;;;;;;;;;;;;;;;21.65;47.91;99706.28;5074225;28;20300;-76
2023/09/28 04:27:25;;;;;;;;;;;;;;;21.64;48.61;99708.16;5073658;28;20011;-76
2023/09/28 04:29:51;;;;;;;;;;;;;;;21.55;48.72;99714.97;5073543;28;19912;-77
2023/09/28 04:35:00;;;;;;;;;;;;;;;21.59;48.04;99728.78;5091930;28;19916;-77
2023/09/28 04:37:26;;;;;;;;;;;;;;;21.54;47.99;99724.09;5091765;28;19912;-76
2023/09/28 04:39:52;;;;;;;;;;;;;;;21.46;48.64;99724.50;5091579;28;19916;-77
2023/09/28 04:45:01;;;;;;;;;;;;;;;21.37;48.41;99729.47;5091980;28;19927;-76
2023/09/28 04:47:26;;;;;;;;;;;;;;;21.40;48.05;99734.34;5091714;28;19912;-77
2023/09/28 04:49:51;;;;;;;;;;;;;;;21.38;48.01;99727.59;5091654;28;19919;-77
2023/09/28 04:52:17;;;;;;;;;;;;;;;21.37;48.21;99731.34;5073242;28;19927;-77
2023/09/28 04:54:43;;;;;;;;;;;;;;;21.35;48.02;99723.53;5091640;28;20294;-77
2023/09/28 04:57:08;;;;;;;;;;;;;;;21.36;48.34;99733.22;5091597;28;19964;-76
2023/09/28 04:59:53;;;;;;;;;;;;;;;21.42;47.73;99737.63;5091345;28;19920;-76
2023/09/28 05:02:19;;;;;;;;;;;;;;;21.43;47.98;99733.88;5091292;28;19904;-75
2023/09/28 05:04:44;;;;;;;;;;;;;;;21.44;47.93;99734.69;5091132;28;20382;-75
2023/09/28 05:07:09;;;;;;;;;;;;;;;21.45;48.32;99736.31;5075690;28;19912;-76
2023/09/28 05:09:53;;;;;;;;;;;;;;;21.47;47.96;99735.00;5095452;28;19919;-75
2023/09/28 05:12:18;;;;;;;;;;;;;;;21.45;47.99;99733.63;5096135;28;19913;-76
2023/09/28 05:14:43;;;;;;;;;;;;;;;21.49;48.37;99732.91;5095136;28;19912;-77
2023/09/28 05:17:09;;;;;;;;;;;;;;;21.54;48.03;99730.28;5076841;28;19919;-77
2023/09/28 05:19:34;;;;;;;;;;;;;;;21.55;47.92;99739.16;5095012;28;20404;-76
2023/09/28 05:21:59;;;;;;;;;;;;;;;21.50;48.64;99741.78;5076502;28;20014;-77
2023/09/28 05:24:24;;;;;;;;;;;;;;;21.51;48.25;99746.09;5094890;28;19927;-77
2023/09/28 05:26:50;;;;;;;;;;;;;;;21.48;47.91;99741.19;5094875;28;19919;-77
2023/09/28 05:29:15;;;;;;;;;;;;;;;21.45;48.67;99741.69;5094855;28;20368;-78
2023/09/28 05:31:59;;;;;;;;;;;;;;;21.48;47.97;99735.81;5094355;28;19919;-78
2023/09/28 05:34:24;;;;;;;;;;;;;;;21.38;48.97;99731.09;5060063;28;19939;-78
2023/09/28 05:39:33;;;;;;;;;;;;;;;21.42;48.54;99737.63;5074421;28;19958;-76
2023/09/28 05:41:59;;;;;;;;;;;;;;;21.46;48.62;99741.44;5074277;28;19912;-77
2023/09/28 05:47:08;;;;;;;;;;;;;;;21.59;48.38;99732.28;5093214;28;19939;-77
2023/09/28 05:49:52;;;;;;;;;;;;;;;21.61;48.51;99734.72;5094257;28;20365;-77
2023/09/28 05:52:18;;;;;;;;;;;;;;;21.65;48.24;99733.16;5093769;28;19976;-77
2023/09/28 05:57:46;;;;;;;;;;;;;;;21.78;47.51;99736.31;5093964;28;19911;-77
2023/09/28 06:00:12;;;;;;;;;;;;;;;21.78;48.30;99730.94;5093975;28;19995;-75
2023/09/28 06:02:56;;;;;;;;;;;;;;;21.81;47.90;99738.50;5076149;28;20006;-76
2023/09/28 06:08:43;;;;;;;;;;;;;;;21.91;47.74;99751.28;5093373;28;20001;-76
2023/09/28 06:11:12;;;;;;;;;;;;;;;21.92;47.70;99747.53;5075207;28;19912;-76
2023/09/28 06:13:39;;;;;;;;;;;;;;;21.92;47.56;99752.09;5094360;28;19912;-77
2023/09/28 06:18:48;;;;;;;;;;;;;;;21.93;47.72;99759.09;5092835;28;20407;-77
2023/09/28 06:21:13;;;;;;;;;;;;;;;21.93;47.75;99756.41;5089231;28;19927;-77
2023/09/28 06:23:57;;;;;;;;;;;;;;;21.91;48.30;99762.03;5071165;28;19986;-77
2023/09/28 06:26:22;;;;;;;;;;;;;;;21.92;47.62;99763.66;5090871;28;20057;-77
2023/09/28 06:29:06;;;;;;;;;;;;;;;21.90;47.62;99771.16;5074072;28;20015;-77
2023/09/28 06:31:33;;;;;;;;;;;;;;;21.93;49.02;99765.28;5088323;28;19958;-77
2023/09/28 06:36:42;;;;;;;;;;;;;;;21.84;49.17;99766.78;5093260;28;19968;-77
2023/09/28 06:39:08;;;;;;;;;;;;;;;21.78;49.71;99779.31;5073764;28;19916;-77
2023/09/28 06:41:33;;;;;;;;;;;;;;;21.73;49.38;99779.25;5093141;28;19919;-76
2023/09/28 06:43:59;;;;;;;;;;;;;;;21.71;50.26;99773.31;5090355;28;20377;-76
2023/09/28 06:46:44;;;;;;;;;;;;;;;21.68;50.81;99778.34;5092272;28;19916;-77
2023/09/28 06:49:11;;;;;;;;;;;;;;;21.64;50.10;99786.09;5092040;28;19923;-76
2023/09/28 06:51:37;;;;;;;;;;;;;;;21.60;50.41;99778.75;5092990;28;19920;-76
2023/09/28 06:57:05;;;;;;;;;;;;;;;21.59;51.19;99786.00;5088923;28;19915;-76
2023/09/28 07:04:58;;;;;;;;;;;;;;;21.47;54.53;99807.56;5100749;28;19931;-75
2023/09/28 07:07:24;;;;;;;;;;;;;;;21.43;52.44;99814.47;5094266;28;19916;-75
2023/09/28 07:09:51;;;;;;;;;;;;;;;21.34;53.80;99807.84;5092759;28;19916;-75
2023/09/28 07:12:34;;;;;;;;;;;;;;;21.24;54.11;99816.53;5093156;28;20325;-76
2023/09/28 07:15:00;;;;;;;;;;;;;;;21.10;53.11;99817.88;5090531;28;19918;-77
2023/09/28 07:17:25;;;;;;;;;;;;;;;20.97;55.65;99817.34;5091705;28;19923;-75
2023/09/28 07:19:50;;;;;;;;;;;;;;;20.91;56.24;99821.78;5090459;28;19916;-76
2023/09/28 07:22:16;;;;;;;;;;;;;;;20.91;57.28;99822.59;5091513;28;19923;-76
2023/09/28 07:24:42;;;;;;;;;;;;;;;20.93;57.11;99820.50;5090700;28;19969;-76
2023/09/28 07:27:07;;;;;;;;;;;;;;;20.89;57.22;99822.03;5091871;28;19916;-76
2023/09/28 07:29:32;;;;;;;;;;;;;;;20.86;57.19;99824.38;5091186;28;20045;-76
2023/09/28 07:31:58;;;;;;;;;;;;;;;20.86;57.66;99819.81;5091454;28;20293;-75
2023/09/28 07:34:23;;;;;;;;;;;;;;;20.85;58.27;99817.38;5089598;28;20005;-75
2023/09/28 07:36:49;;;;;;;;;;;;;;;20.84;57.30;99813.88;5089738;28;20068;-75
2023/09/28 07:39:14;;;;;;;;;;;;;;;20.84;57.26;99816.56;5087239;28;19973;-76
2023/09/28 07:41:40;;;;;;;;;;;;;;;20.85;57.98;99810.13;5091727;28;19920;-75
2023/09/28 07:44:05;;;;;;;;;;;;;;;20.90;56.92;99815.59;5089345;28;19920;-75
2023/09/28 07:46:31;;;;;;;;;;;;;;;20.89;57.31;99810.47;5069410;28;19916;-77
2023/09/28 07:48:56;;;;;;;;;;;;;;;20.79;56.95;99813.75;5071227;28;19924;-75
2023/09/28 07:51:21;;;;;;;;;;;;;;;20.63;60.54;99814.50;5070867;28;19919;-76
2023/09/28 07:53:47;;;;;;;;;;;;;;;20.61;58.50;99811.22;5091082;28;20422;-77
2023/09/28 07:56:12;;;;;;;;;;;;;;;20.61;58.46;99809.38;5091439;28;19905;-77
2023/09/28 07:58:37;;;;;;;;;;;;;;;20.59;61.91;99821.38;5084649;28;19972;-76
2023/09/28 08:01:03;;;;;;;;;;;;;;;20.59;59.41;99814.16;5090407;28;20373;-76
2023/09/28 08:03:28;;;;;;;;;;;;;;;20.52;60.05;99826.06;5087047;28;19924;-77
2023/09/28 08:05:54;;;;;;;;;;;;;;;20.55;59.65;99822.91;5090478;28;19912;-74
2023/09/28 08:08:19;;;;;;;;;;;;;;;20.60;60.72;99825.69;5087007;28;20373;-76
2023/09/28 08:11:03;;;;;;;;;;;;;;;20.67;58.08;99826.38;5089779;28;19912;-76
2023/09/28 08:16:31;;;;;;;;;;;;;;;20.62;60.90;99828.97;5088700;28;19973;-76
2023/09/28 08:18:56;;;;;;;;;;;;;;;20.56;59.80;99830.72;5068150;28;20380;-76
2023/09/28 08:21:24;;;;;;;;;;;;;;;20.60;60.52;99828.38;5089535;28;19989;-77
2023/09/28 08:23:50;;;;;;;;;;;;;;;20.65;58.53;99817.75;5091869;28;20298;-76
2023/09/28 08:28:59;;;;;;;;;;;;;;;20.68;58.99;99817.28;5090701;28;20418;-76
2023/09/28 08:31:24;;;;;;;;;;;;;;;20.67;59.86;99820.19;5090665;28;19929;-76
2023/09/28 08:33:50;;;;;;;;;;;;;;;20.73;57.90;99816.56;5090970;28;19962;-77
2023/09/28 08:36:16;;;;;;;;;;;;;;;20.77;60.36;99821.22;5071427;28;19947;-76
2023/09/28 08:41:34;;;;;;;;;;;;;;;20.75;60.04;99817.97;5090516;28;19973;-76
2023/09/28 08:44:02;;;;;;;;;;;;;;;20.77;60.60;99818.53;5076718;28;19969;-76
2023/09/28 08:46:30;;;;;;;;;;;;;;;20.80;59.10;99811.88;5094323;28;19916;-73
2023/09/28 08:48:58;;;;;;;;;;;;;;;20.86;60.56;99814.47;5075851;28;19954;-76
2023/09/28 08:51:44;;;;;;;;;;;;;;;20.84;61.31;99815.75;5088748;28;19920;-74
2023/09/28 08:54:09;;;;;;;;;;;;;;;20.87;60.48;99813.41;5072305;28;20332;-74
2023/09/28 08:56:54;;;;;;;;;;;;;;;20.89;62.82;99811.28;5093118;28;19916;-75
2023/09/28 08:59:20;;;;;;;;;;;;;;;20.89;58.27;99819.34;5093725;28;19920;-74
2023/09/28 09:01:46;;;;;;;;;;;;;;;20.89;60.50;99823.91;5092739;28;20324;-73
2023/09/28 09:04:11;;;;;;;;;;;;;;;20.92;60.21;99818.06;5094994;28;19916;-73
2023/09/28 09:06:37;;;;;;;;;;;;;;;20.93;60.81;99819.69;5066663;28;20014;-75
2023/09/28 09:09:05;;;;;;;;;;;;;;;20.98;61.86;99819.78;5073058;28;19916;-74
2023/09/28 09:11:49;;;;;;;;;;;;;;;20.98;62.75;99822.47;5092357;28;20377;-77
2023/09/28 09:14:15;;;;;;;;;;;;;;;21.03;62.43;99814.50;5092091;28;19916;-77
2023/09/28 09:16:41;;;;;;;;;;;;;;;21.07;61.49;99815.66;5074107;28;20458;-76
2023/09/28 09:19:07;;;;;;;;;;;;;;;21.13;61.21;99805.84;5094374;28;19912;-76
2023/09/28 09:21:40;;;;;;;;;;;;;;;21.13;60.71;99809.34;5091703;28;19916;-77
2023/09/28 09:24:10;;;;;;;;;;;;;;;21.17;61.58;99806.97;5091999;28;19931;-76
2023/09/28 09:26:39;;;;;;;;;;;;;;;21.21;60.26;99810.81;5092693;28;19916;-74
2023/09/28 09:31:49;;;;;;;;;;;;;;;21.25;61.03;99801.25;5094310;28;20396;-76
2023/09/28 09:34:18;;;;;;;;;;;;;;;21.31;60.18;99805.66;5091223;28;19916;-76
2023/09/28 09:36:57;;;;;;;;;;;;;;;21.37;60.76;99817.31;5091638;28;20044;-76
2023/09/28 09:42:10;;;;;;;;;;;;;;;21.24;60.69;99821.91;5091612;28;19923;-75
2023/09/28 09:44:36;;;;;;;;;;;;;;;21.24;61.96;99821.91;5093599;28;19920;-77
2023/09/28 09:47:02;;;;;;;;;;;;;;;21.25;61.89;99817.38;5092859;28;19971;-76
2023/09/28 09:49:27;;;;;;;;;;;;;;;21.15;62.25;99815.28;5092511;28;19916;-76
2023/09/28 09:51:53;;;;;;;;;;;;;;;21.17;61.98;99818.53;5094213;28;19950;-76
2023/09/28 09:54:20;;;;;;;;;;;;;;;21.14;62.79;99826.25;5090423;28;20398;-74
2023/09/28 09:56:46;;;;;;;;;;;;;;;21.13;63.74;99814.69;5090227;28;19924;-75
2023/09/28 09:59:15;;;;;;;;;;;;;;;21.16;63.85;99811.53;5090102;28;20316;-75
2023/09/28 10:01:42;;;;;;;;;;;;;;;21.13;63.60;99809.34;5071104;28;19985;-76
2023/09/28 10:07:12;;;;;;;;;;;;;;;21.14;63.46;99802.09;5092909;28;20363;-75
2023/09/28 10:09:39;;;;;;;;;;;;;;;21.08;64.76;99811.09;5092033;28;19920;-77
2023/09/28 10:12:04;;;;;;;;;;;;;;;21.08;62.92;99806.56;5093054;28;20048;-76
2023/09/28 10:14:29;;;;;;;;;;;;;;;21.10;61.04;99807.13;5092560;28;20429;-76
2023/09/28 10:16:56;;;;;;;;;;;;;;;21.03;64.08;99801.09;5091865;28;20000;-76
2023/09/28 10:19:23;;;;;;;;;;;;;;;20.99;64.58;99804.50;5080109;28;20378;-76
2023/09/28 10:21:50;;;;;;;;;;;;;;;21.01;64.77;99797.00;5066264;28;19916;-76
2023/09/28 10:24:17;;;;;;;;;;;;;;;21.03;64.09;99801.09;5092224;28;19927;-77
2023/09/28 10:26:50;;;;;;;;;;;;;;;21.01;63.82;99805.06;5093385;28;19916;-76
2023/09/28 10:29:30;;;;;;;;;;;;;;;21.05;64.96;99800.84;5091880;28;19920;-76
2023/09/28 10:31:56;;;;;;;;;;;;;;;21.03;63.10;99793.03;5093597;28;19916;-76
2023/09/28 10:34:43;;;;;;;;;;;;;;;21.08;63.00;99798.50;5092343;28;19923;-75
2023/09/28 10:37:10;;;;;;;;;;;;;;;21.09;63.88;99805.50;5089400;28;19959;-76
2023/09/28 10:39:36;;;;;;;;;;;;;;;21.09;63.69;99810.88;5077632;28;19916;-76
2023/09/28 10:42:08;;;;;;;;;;;;;;;21.08;63.37;99800.38;5092634;28;20320;-76
2023/09/28 10:44:33;;;;;;;;;;;;;;;21.08;64.45;99808.44;5088485;28;19927;-74
2023/09/28 10:46:58;;;;;;;;;;;;;;;21.11;65.36;99816.81;5089838;28;19916;-75
2023/09/28 10:49:25;;;;;;;;;;;;;;;21.13;64.88;99811.19;5092120;28;19923;-75
2023/09/28 10:51:51;;;;;;;;;;;;;;;21.14;64.57;99802.91;5089857;28;19920;-73
2023/09/28 10:54:16;;;;;;;;;;;;;;;21.15;64.97;99807.22;5082910;28;20309;-73
2023/09/28 10:57:02;;;;;;;;;;;;;;;21.16;63.65;99802.66;5061925;28;19917;-75
2023/09/28 11:02:11;;;;;;;;;;;;;;;21.27;65.00;99803.69;5090887;28;19923;-73
2023/09/28 11:04:37;;;;;;;;;;;;;;;21.33;65.30;99798.16;5089981;28;19920;-76
2023/09/28 11:09:46;;;;;;;;;;;;;;;21.40;64.18;99793.47;5087228;28;20057;-75
2023/09/28 11:12:13;;;;;;;;;;;;;;;21.46;63.33;99794.34;5092852;28;19957;-76
2023/09/28 11:14:41;;;;;;;;;;;;;;;21.51;63.13;99789.88;5093130;28;19920;-73
2023/09/28 11:17:07;;;;;;;;;;;;;;;21.57;63.99;99788.13;5097018;28;19923;-74
2023/09/28 11:19:34;;;;;;;;;;;;;;;21.60;64.07;99792.19;5096077;28;19912;-75
2023/09/28 11:21:59;;;;;;;;;;;;;;;21.70;64.90;99787.81;5091393;28;19916;-74
2023/09/28 11:24:25;;;;;;;;;;;;;;;21.82;63.48;99782.34;5090949;28;19942;-75
2023/09/28 11:26:51;;;;;;;;;;;;;;;21.86;62.36;99781.59;5091303;28;19922;-77
2023/09/28 11:29:16;;;;;;;;;;;;;;;21.85;62.83;99779.16;5092264;28;19912;-76
2023/09/28 11:31:52;;;;;;;;;;;;;;;21.80;62.34;99776.41;5072399;28;20373;-75
2023/09/28 11:34:28;;;;;;;;;;;;;;;21.80;61.64;99787.16;5091366;28;20441;-76
2023/09/28 11:36:55;;;;;;;;;;;;;;;21.77;65.05;99785.75;5091639;28;19973;-74
2023/09/28 11:39:20;;;;;;;;;;;;;;;21.78;63.61;99775.81;5073304;28;20319;-75
2023/09/28 11:41:58;;;;;;;;;;;;;;;21.78;63.36;99781.19;5092191;28;20007;-74
2023/09/28 11:44:26;;;;;;;;;;;;;;;21.75;63.02;99777.13;5092041;28;19927;-74
2023/09/28 11:46:52;;;;;;;;;;;;;;;21.78;63.30;99781.19;5091272;28;20031;-74
2023/09/28 11:49:37;;;;;;;;;;;;;;;21.78;63.05;99778.50;5091904;28;19919;-76
2023/09/28 11:52:03;;;;;;;;;;;;;;;21.81;64.47;99775.34;5091963;28;19994;-76
2023/09/28 11:54:29;;;;;;;;;;;;;;;21.81;63.40;99783.41;5092330;28;19934;-75
2023/09/28 11:56:57;;;;;;;;;;;;;;;21.80;62.84;99773.72;5068413;28;19920;-73
2023/09/28 12:02:07;;;;;;;;;;;;;;;21.81;62.98;99775.34;5092042;28;19919;-74
2023/09/28 12:04:51;;;;;;;;;;;;;;;21.77;63.31;99772.31;5091645;28;20381;-76
2023/09/28 12:10:19;;;;;;;;;;;;;;;21.77;64.45;99768.81;5091438;28;20035;-77
2023/09/28 12:15:28;;;;;;;;;;;;;;;21.81;63.93;99754.66;5088711;28;20003;-74
2023/09/28 12:17:53;;;;;;;;;;;;;;;21.91;63.89;99758.53;5072915;28;19987;-76
2023/09/28 12:20:18;;;;;;;;;;;;;;;21.96;63.81;99756.75;5091131;28;19933;-75
2023/09/28 12:22:44;;;;;;;;;;;;;;;22.04;64.18;99761.72;5091990;28;19912;-75
2023/09/28 12:25:10;;;;;;;;;;;;;;;22.04;64.39;99755.53;5091379;28;20416;-73
2023/09/28 12:27:35;;;;;;;;;;;;;;;22.11;62.96;99759.66;5090092;28;19916;-74
2023/09/28 12:30:02;;;;;;;;;;;;;;;22.19;63.47;99751.19;5089974;28;19920;-75
2023/09/28 12:32:28;;;;;;;;;;;;;;;22.26;62.45;99755.56;5073423;28;19963;-75
2023/09/28 12:37:38;;;;;;;;;;;;;;;22.20;62.33;99743.91;5090207;28;19924;-74
2023/09/28 12:40:04;;;;;;;;;;;;;;;22.21;62.40;99742.84;5091440;28;19916;-74
2023/09/28 12:42:29;;;;;;;;;;;;;;;22.24;61.68;99736.16;5090168;28;21553;-75
2023/09/28 12:44:58;;;;;;;;;;;;;;;22.24;62.62;99734.28;5090263;28;19920;-74
2023/09/28 12:47:24;;;;;;;;;;;;;;;22.26;61.51;99724.09;5089614;28;19924;-75
2023/09/28 12:49:50;;;;;;;;;;;;;;;22.20;63.12;99723.22;5082356;28;19920;-74
2023/09/28 12:52:16;;;;;;;;;;;;;;;22.21;61.32;99729.41;5091140;28;19972;-74
2023/09/28 12:54:41;;;;;;;;;;;;;;;22.19;63.12;99723.47;5091009;28;20006;-74
2023/09/28 12:57:08;;;;;;;;;;;;;;;22.20;62.20;99725.09;5089791;28;20066;-74
2023/09/28 12:59:33;;;;;;;;;;;;;;;22.25;60.88;99722.47;5091380;28;19923;-74
2023/09/28 13:01:58;;;;;;;;;;;;;;;22.27;62.29;99728.41;5069662;28;19916;-74
2023/09/28 13:04:24;;;;;;;;;;;;;;;22.20;61.35;99728.59;5071176;28;20020;-75
2023/09/28 13:06:49;;;;;;;;;;;;;;;22.14;62.55;99726.91;5090267;28;20365;-73
2023/09/28 13:09:15;;;;;;;;;;;;;;;22.12;62.49;99726.34;5070412;28;20710;-75
2023/09/28 13:11:42;;;;;;;;;;;;;;;22.18;62.72;99728.03;5091142;28;19912;-74
2023/09/28 13:14:07;;;;;;;;;;;;;;;22.22;62.16;99719.47;5090225;28;20290;-75
2023/09/28 13:16:33;;;;;;;;;;;;;;;22.25;61.53;99719.78;5070203;28;19922;-74
2023/09/28 13:18:59;;;;;;;;;;;;;;;22.28;61.99;99723.84;5090174;28;20304;-74
2023/09/28 13:21:27;;;;;;;;;;;;;;;22.36;61.75;99726.94;5081934;28;19916;-76
2023/09/28 13:23:52;;;;;;;;;;;;;;;22.39;62.07;99736.38;5086015;28;19920;-75
2023/09/28 13:26:18;;;;;;;;;;;;;;;22.40;63.43;99736.13;5066122;28;20345;-74
2023/09/28 13:28:44;;;;;;;;;;;;;;;22.41;62.39;99729.69;5070246;28;19970;-74
2023/09/28 13:31:10;;;;;;;;;;;;;;;22.45;62.57;99735.38;5075975;28;19937;-73
2023/09/28 13:33:37;;;;;;;;;;;;;;;22.49;62.54;99737.31;5093572;28;19912;-76
2023/09/28 13:36:05;;;;;;;;;;;;;;;22.55;62.13;99735.50;5070649;28;19920;-76
2023/09/28 13:38:31;;;;;;;;;;;;;;;22.59;62.45;99743.88;5094491;28;19912;-73
2023/09/28 13:40:58;;;;;;;;;;;;;;;22.55;61.64;99740.88;5076343;28;19912;-76
2023/09/28 13:43:23;;;;;;;;;;;;;;;22.55;61.76;99746.25;5094250;28;19919;-73
2023/09/28 13:45:48;;;;;;;;;;;;;;;22.55;62.42;99745.44;5092031;28;19916;-75
2023/09/28 13:48:13;;;;;;;;;;;;;;;22.54;62.28;99741.94;5090713;28;20029;-75
2023/09/28 13:50:39;;;;;;;;;;;;;;;22.57;62.02;99738.75;5093665;28;19922;-76
2023/09/28 13:53:05;;;;;;;;;;;;;;;22.60;61.93;99740.94;5093559;28;19927;-73
2023/09/28 13:55:30;;;;;;;;;;;;;;;22.62;61.75;99741.50;5074472;28;20486;-74
2023/09/28 13:57:55;;;;;;;;;;;;;;;22.63;61.94;99737.75;5093702;28;19916;-73
2023/09/28 14:02:52;;;;;;;;;;;;;;;22.62;62.21;99733.44;5087703;28;19928;-72
2023/09/28 14:05:17;;;;;;;;;;;;;;;22.62;62.66;99736.13;5092461;28;19920;-74
2023/09/28 14:07:42;;;;;;;;;;;;;;;22.63;63.97;99732.38;5091593;28;19945;-74
2023/09/28 14:10:08;;;;;;;;;;;;;;;22.59;62.51;99735.81;5094527;28;19916;-74
2023/09/28 14:12:33;;;;;;;;;;;;;;;22.54;63.28;99739.25;5091195;28;20004;-74
2023/09/28 14:14:59;;;;;;;;;;;;;;;22.57;63.48;99736.06;5090667;28;19916;-74
2023/09/28 14:17:24;;;;;;;;;;;;;;;22.58;63.10;99735.00;5093599;28;19912;-74
2023/09/28 14:19:50;;;;;;;;;;;;;;;22.60;63.30;99732.88;5091030;28;19931;-75